createdAt,value
2018-01-21T00:00:43.211Z,0
2018-01-21T00:01:52.322Z,0
2018-01-21T00:03:01.299Z,0
2018-01-21T00:04:10.125Z,0
2018-01-21T00:05:18.950Z,0
2018-01-21T00:06:27.778Z,0
2018-01-21T00:07:36.878Z,0
2018-01-21T00:08:45.849Z,0
2018-01-21T00:09:54.674Z,0
2018-01-21T00:11:03.500Z,0
2018-01-21T00:12:12.327Z,0
2018-01-21T00:13:21.154Z,0
2018-01-21T00:14:30.028Z,0
2018-01-21T00:15:38.855Z,0
2018-01-21T00:16:47.681Z,0
2018-01-21T00:17:56.507Z,0
2018-01-21T00:19:05.339Z,0
2018-01-21T00:20:14.213Z,0
2018-01-21T00:21:23.041Z,0
2018-01-21T00:22:31.862Z,0
2018-01-21T00:23:40.688Z,0
2018-01-21T00:24:49.787Z,0
2018-01-21T00:25:58.713Z,0
2018-01-21T00:27:07.538Z,0
2018-01-21T00:28:16.365Z,0
2018-01-21T00:29:25.195Z,0
2018-01-21T00:30:34.021Z,0
2018-01-21T00:31:43.046Z,0
2018-01-21T00:32:51.871Z,0
2018-01-21T00:34:00.700Z,0
2018-01-21T00:35:09.804Z,0
2018-01-21T00:36:18.630Z,0
2018-01-21T00:37:27.456Z,0
2018-01-21T00:38:36.290Z,0
2018-01-21T00:39:45.109Z,0
2018-01-21T00:40:54.215Z,0
2018-01-21T00:42:03.318Z,0
2018-01-21T00:43:12.341Z,0
2018-01-21T00:44:21.169Z,0
2018-01-21T00:45:29.992Z,0
2018-01-21T00:46:39.092Z,0
2018-01-21T00:47:47.920Z,0
2018-01-21T00:48:56.995Z,0
2018-01-21T00:50:05.824Z,0
2018-01-21T00:51:14.651Z,0
2018-01-21T00:52:23.754Z,0
2018-01-21T00:53:32.581Z,0
2018-01-21T00:54:41.808Z,0
2018-01-21T00:55:50.634Z,0
2018-01-21T00:56:59.461Z,0
2018-01-21T00:58:08.560Z,0
2018-01-21T00:59:17.657Z,0
2018-01-21T01:00:26.635Z,0
2018-01-21T01:01:35.732Z,0
2018-01-21T01:02:44.562Z,0
2018-01-21T01:03:53.387Z,0
2018-01-21T01:05:02.213Z,0
2018-01-21T01:06:11.187Z,0
2018-01-21T01:07:20.015Z,0
2018-01-21T01:08:28.846Z,0
2018-01-21T01:09:37.720Z,0
2018-01-21T01:10:46.492Z,0
2018-01-21T01:11:55.421Z,0
2018-01-21T01:13:04.242Z,0
2018-01-21T01:14:13.067Z,0
2018-01-21T01:15:21.894Z,0
2018-01-21T01:16:30.719Z,0
2018-01-21T01:17:39.584Z,0
2018-01-21T01:18:48.371Z,0
2018-01-21T01:19:57.198Z,0
2018-01-21T01:21:06.025Z,0
2018-01-21T01:22:14.851Z,0
2018-01-21T01:23:23.780Z,0
2018-01-21T01:24:32.604Z,0
2018-01-21T01:25:41.433Z,0
2018-01-21T01:26:50.259Z,0
2018-01-21T01:27:59.087Z,0
2018-01-21T01:29:08.284Z,0
2018-01-21T01:30:17.109Z,0
2018-01-21T01:31:25.935Z,0
2018-01-21T01:32:35.035Z,0
2018-01-21T01:33:43.862Z,0
2018-01-21T01:34:52.736Z,0
2018-01-21T01:36:01.563Z,0
2018-01-21T01:37:10.389Z,0
2018-01-21T01:38:19.217Z,0
2018-01-21T01:39:28.313Z,0
2018-01-21T01:40:37.461Z,0
2018-01-21T01:41:46.290Z,0
2018-01-21T01:42:55.400Z,0
2018-01-21T01:44:04.228Z,0
2018-01-21T01:45:13.054Z,0
2018-01-21T01:46:21.980Z,0
2018-01-21T01:47:30.807Z,0
2018-01-21T01:48:39.634Z,0
2018-01-21T01:49:48.461Z,0
2018-01-21T01:50:57.832Z,0
2018-01-21T01:52:06.760Z,0
2018-01-21T01:53:15.584Z,0
2018-01-21T01:54:24.412Z,0
2018-01-21T01:55:33.239Z,0
2018-01-21T01:56:42.065Z,0
2018-01-21T01:57:51.998Z,0
2018-01-21T01:59:00.827Z,0
2018-01-21T02:00:09.922Z,0
2018-01-21T02:01:18.750Z,0
2018-01-21T02:02:27.576Z,0
2018-01-21T02:03:36.403Z,0
2018-01-21T02:04:45.229Z,0
2018-01-21T02:05:54.054Z,0
2018-01-21T02:07:02.881Z,0
2018-01-21T02:08:11.708Z,0
2018-01-21T02:09:20.783Z,0
2018-01-21T02:10:29.610Z,0
2018-01-21T02:11:38.437Z,0
2018-01-21T02:12:47.264Z,0
2018-01-21T02:13:56.091Z,0
2018-01-21T02:15:05.217Z,0
2018-01-21T02:16:14.044Z,0
2018-01-21T02:17:22.873Z,0
2018-01-21T02:18:31.698Z,0
2018-01-21T02:19:40.525Z,0
2018-01-21T02:20:49.607Z,0
2018-01-21T02:21:58.427Z,0
2018-01-21T02:23:07.253Z,0
2018-01-21T02:24:16.357Z,0
2018-01-21T02:25:25.457Z,0
2018-01-21T02:26:34.585Z,0
2018-01-21T02:27:43.412Z,0
2018-01-21T02:28:52.237Z,0
2018-01-21T02:30:01.065Z,0
2018-01-21T02:31:09.895Z,0
2018-01-21T02:32:18.873Z,0
2018-01-21T02:33:27.698Z,0
2018-01-21T02:34:36.800Z,0
2018-01-21T02:35:45.904Z,0
2018-01-21T02:36:54.735Z,0
2018-01-21T02:38:04.108Z,0
2018-01-21T02:39:12.935Z,0
2018-01-21T02:40:21.761Z,0
2018-01-21T02:41:30.590Z,0
2018-01-21T02:42:39.417Z,0
2018-01-21T02:43:48.495Z,0
2018-01-21T02:44:57.319Z,0
2018-01-21T02:46:06.147Z,0
2018-01-21T02:47:14.972Z,0
2018-01-21T02:48:24.076Z,0
2018-01-21T02:49:32.906Z,0
2018-01-21T02:50:42.009Z,0
2018-01-21T02:51:50.837Z,0
2018-01-21T02:52:59.949Z,0
2018-01-21T02:54:08.778Z,0
2018-01-21T02:55:17.981Z,0
2018-01-21T02:56:26.808Z,0
2018-01-21T02:57:35.634Z,0
2018-01-21T02:58:44.461Z,0
2018-01-21T02:59:53.287Z,0
2018-01-21T03:01:02.114Z,0
2018-01-21T03:02:10.940Z,0
2018-01-21T03:03:19.767Z,0
2018-01-21T03:04:28.594Z,0
2018-01-21T03:05:37.696Z,0
2018-01-21T03:06:46.523Z,0
2018-01-21T03:07:55.349Z,0
2018-01-21T03:09:04.176Z,0
2018-01-21T03:10:13.274Z,0
2018-01-21T03:11:22.100Z,0
2018-01-21T03:12:31.029Z,0
2018-01-21T03:13:40.127Z,0
2018-01-21T03:14:48.955Z,0
2018-01-21T03:15:57.783Z,0
2018-01-21T03:17:06.883Z,0
2018-01-21T03:18:15.860Z,0
2018-01-21T03:19:24.690Z,0
2018-01-21T03:20:33.794Z,0
2018-01-21T03:21:42.616Z,0
2018-01-21T03:22:51.442Z,0
2018-01-21T03:24:00.421Z,0
2018-01-21T03:25:09.250Z,0
2018-01-21T03:26:18.075Z,0
2018-01-21T03:27:26.903Z,0
2018-01-21T03:28:35.730Z,0
2018-01-21T03:29:44.555Z,0
2018-01-21T03:30:53.382Z,0
2018-01-21T03:32:02.208Z,0
2018-01-21T03:33:11.039Z,0
2018-01-21T03:34:19.867Z,0
2018-01-21T03:35:28.944Z,0
2018-01-21T03:36:37.772Z,0
2018-01-21T03:37:46.599Z,0
2018-01-21T03:38:55.428Z,0
2018-01-21T03:40:04.261Z,0
2018-01-21T03:41:13.080Z,0
2018-01-21T03:42:21.910Z,0
2018-01-21T03:43:30.737Z,0
2018-01-21T03:44:39.562Z,0
2018-01-21T03:45:48.390Z,0
2018-01-21T03:46:57.264Z,0
2018-01-21T03:48:06.093Z,0
2018-01-21T03:49:14.920Z,0
2018-01-21T03:50:23.746Z,0
2018-01-21T03:51:32.573Z,0
2018-01-21T03:52:41.400Z,0
2018-01-21T03:53:50.227Z,0
2018-01-21T03:54:59.052Z,0
2018-01-21T03:56:07.878Z,0
2018-01-21T03:57:16.979Z,0
2018-01-21T03:58:26.105Z,0
2018-01-21T03:59:35.207Z,0
2018-01-21T04:00:44.035Z,0
2018-01-21T04:01:52.865Z,0
2018-01-21T04:03:01.962Z,0
2018-01-21T04:04:10.836Z,0
2018-01-21T04:05:19.664Z,0
2018-01-21T04:06:28.491Z,0
2018-01-21T04:07:37.589Z,0
2018-01-21T04:08:46.417Z,0
2018-01-21T04:09:55.394Z,0
2018-01-21T04:11:04.493Z,0
2018-01-21T04:12:13.866Z,0
2018-01-21T04:13:22.691Z,0
2018-01-21T04:14:31.520Z,0
2018-01-21T04:15:40.442Z,0
2018-01-21T04:16:49.271Z,0
2018-01-21T04:17:58.099Z,0
2018-01-21T04:19:06.927Z,0
2018-01-21T04:20:15.755Z,0
2018-01-21T04:21:24.883Z,0
2018-01-21T04:22:33.710Z,0
2018-01-21T04:23:42.536Z,0
2018-01-21T04:24:51.360Z,0
2018-01-21T04:26:00.190Z,0
2018-01-21T04:27:09.267Z,0
2018-01-21T04:28:18.093Z,0
2018-01-21T04:29:26.919Z,0
2018-01-21T04:30:36.025Z,0
2018-01-21T04:31:44.852Z,0
2018-01-21T04:32:53.979Z,0
2018-01-21T04:34:02.807Z,0
2018-01-21T04:35:11.914Z,0
2018-01-21T04:36:21.009Z,0
2018-01-21T04:37:30.110Z,0
2018-01-21T04:38:39.089Z,0
2018-01-21T04:39:47.917Z,0
2018-01-21T04:40:56.744Z,0
2018-01-21T04:42:05.845Z,0
2018-01-21T04:43:14.672Z,0
2018-01-21T04:44:23.798Z,0
2018-01-21T04:45:32.627Z,0
2018-01-21T04:46:41.455Z,0
2018-01-21T04:47:50.551Z,0
2018-01-21T04:48:59.379Z,0
2018-01-21T04:50:08.358Z,0
2018-01-21T04:51:17.185Z,0
2018-01-21T04:52:26.010Z,0
2018-01-21T04:53:34.837Z,0
2018-01-21T04:54:43.939Z,0
2018-01-21T04:55:52.916Z,0
2018-01-21T04:57:01.744Z,0
2018-01-21T04:58:10.571Z,0
2018-01-21T04:59:19.396Z,0
2018-01-21T05:00:28.224Z,0
2018-01-21T05:01:37.050Z,0
2018-01-21T05:02:45.878Z,0
2018-01-21T05:03:54.704Z,0
2018-01-21T05:05:03.529Z,0
2018-01-21T05:06:12.358Z,0
2018-01-21T05:07:21.286Z,0
2018-01-21T05:08:30.114Z,0
2018-01-21T05:09:38.941Z,0
2018-01-21T05:10:47.768Z,0
2018-01-21T05:11:56.594Z,0
2018-01-21T05:13:05.522Z,0
2018-01-21T05:14:14.349Z,0
2018-01-21T05:15:23.177Z,0
2018-01-21T05:16:32.006Z,0
2018-01-21T05:17:40.833Z,0
2018-01-21T05:18:49.959Z,0
2018-01-21T05:19:58.785Z,0
2018-01-21T05:21:07.615Z,0
2018-01-21T05:22:16.449Z,0
2018-01-21T05:23:25.546Z,0
2018-01-21T05:24:34.625Z,0
2018-01-21T05:25:43.463Z,0
2018-01-21T05:26:52.280Z,0
2018-01-21T05:28:01.108Z,0
2018-01-21T05:29:09.935Z,0
2018-01-21T05:30:18.763Z,0
2018-01-21T05:31:27.590Z,0
2018-01-21T05:32:36.416Z,0
2018-01-21T05:33:45.245Z,0
2018-01-21T05:34:54.073Z,0
2018-01-21T05:36:03.320Z,0
2018-01-21T05:37:12.148Z,0
2018-01-21T05:38:20.975Z,0
2018-01-21T05:39:29.802Z,0
2018-01-21T05:40:38.629Z,0
2018-01-21T05:41:47.655Z,0
2018-01-21T05:42:56.481Z,0
2018-01-21T05:44:05.306Z,0
2018-01-21T05:45:14.135Z,0
2018-01-21T05:46:22.962Z,0
2018-01-21T05:47:31.788Z,0
2018-01-21T05:48:40.614Z,0
2018-01-21T05:49:49.439Z,0
2018-01-21T05:50:58.270Z,0
2018-01-21T05:52:07.097Z,0
2018-01-21T05:53:16.224Z,0
2018-01-21T05:54:25.329Z,0
2018-01-21T05:55:34.155Z,0
2018-01-21T05:56:43.260Z,0
2018-01-21T05:57:52.088Z,0
2018-01-21T05:59:01.287Z,0
2018-01-21T06:00:10.113Z,0
2018-01-21T06:01:18.942Z,0
2018-01-21T06:02:27.772Z,0
2018-01-21T06:03:36.634Z,0
2018-01-21T06:04:45.424Z,0
2018-01-21T06:05:54.252Z,0
2018-01-21T06:07:03.077Z,0
2018-01-21T06:08:11.905Z,0
2018-01-21T06:09:20.731Z,0
2018-01-21T06:10:29.708Z,0
2018-01-21T06:11:38.815Z,0
2018-01-21T06:12:47.912Z,0
2018-01-21T06:13:56.738Z,0
2018-01-21T06:15:05.565Z,0
2018-01-21T06:16:14.444Z,0
2018-01-21T06:17:23.271Z,0
2018-01-21T06:18:32.098Z,0
2018-01-21T06:19:41.195Z,0
2018-01-21T06:20:50.021Z,0
2018-01-21T06:21:58.899Z,0
2018-01-21T06:23:07.725Z,0
2018-01-21T06:24:16.551Z,0
2018-01-21T06:25:25.379Z,0
2018-01-21T06:26:34.205Z,0
2018-01-21T06:27:43.282Z,0
2018-01-21T06:28:52.108Z,0
2018-01-21T06:30:00.939Z,0
2018-01-21T06:31:09.762Z,0
2018-01-21T06:32:18.865Z,0
2018-01-21T06:33:27.793Z,0
2018-01-21T06:34:36.618Z,0
2018-01-21T06:35:45.443Z,0
2018-01-21T06:36:54.268Z,0
2018-01-21T06:38:03.095Z,0
2018-01-21T06:39:12.224Z,0
2018-01-21T06:40:21.051Z,0
2018-01-21T06:41:29.878Z,0
2018-01-21T06:42:38.705Z,0
2018-01-21T06:43:47.533Z,0
2018-01-21T06:44:56.458Z,0
2018-01-21T06:46:05.285Z,0
2018-01-21T06:47:14.119Z,0
2018-01-21T06:48:22.938Z,0
2018-01-21T06:49:31.764Z,0
2018-01-21T06:50:40.690Z,0
2018-01-21T06:51:49.789Z,0
2018-01-21T06:52:58.615Z,0
2018-01-21T06:54:07.443Z,0
2018-01-21T06:55:16.271Z,4
2018-01-21T06:56:25.347Z,4
2018-01-21T06:57:34.175Z,0
2018-01-21T06:58:43.002Z,4
2018-01-21T06:59:51.829Z,4
2018-01-21T07:01:00.659Z,4
2018-01-21T07:02:09.956Z,4
2018-01-21T07:03:18.785Z,4
2018-01-21T07:04:27.610Z,8
2018-01-21T07:05:36.441Z,8
2018-01-21T07:06:45.540Z,8
2018-01-21T07:07:54.766Z,12
2018-01-21T07:09:03.599Z,16
2018-01-21T07:10:12.419Z,16
2018-01-21T07:11:21.249Z,20
2018-01-21T07:12:30.075Z,20
2018-01-21T07:13:39.304Z,24
2018-01-21T07:14:48.129Z,28
2018-01-21T07:15:56.956Z,32
2018-01-21T07:17:06.060Z,36
2018-01-21T07:18:14.885Z,40
2018-01-21T07:19:23.862Z,48
2018-01-21T07:20:32.688Z,48
2018-01-21T07:21:41.514Z,56
2018-01-21T07:22:50.340Z,60
2018-01-21T07:23:59.167Z,68
2018-01-21T07:25:08.046Z,76
2018-01-21T07:26:17.142Z,84
2018-01-21T07:27:26.245Z,92
2018-01-21T07:28:35.076Z,96
2018-01-21T07:29:43.904Z,108
2018-01-21T07:30:52.785Z,112
2018-01-21T07:32:01.611Z,124
2018-01-21T07:33:10.437Z,132
2018-01-21T07:34:19.266Z,140
2018-01-21T07:35:28.092Z,140
2018-01-21T07:36:36.966Z,156
2018-01-21T07:37:45.793Z,164
2018-01-21T07:38:54.624Z,172
2018-01-21T07:40:03.448Z,188
2018-01-21T07:41:12.549Z,200
2018-01-21T07:42:21.473Z,208
2018-01-21T07:43:30.306Z,224
2018-01-21T07:44:39.137Z,240
2018-01-21T07:45:47.964Z,256
2018-01-21T07:46:57.068Z,272
2018-01-21T07:48:06.043Z,284
2018-01-21T07:49:14.870Z,304
2018-01-21T07:50:23.697Z,320
2018-01-21T07:51:32.535Z,336
2018-01-21T07:52:41.362Z,348
2018-01-21T07:53:50.490Z,360
2018-01-21T07:54:59.321Z,368
2018-01-21T07:56:08.143Z,376
2018-01-21T07:57:17.247Z,392
2018-01-21T07:58:26.074Z,400
2018-01-21T07:59:34.900Z,412
2018-01-21T08:00:43.728Z,424
2018-01-21T08:01:52.558Z,444
2018-01-21T08:03:01.382Z,464
2018-01-21T08:04:10.206Z,480
2018-01-21T08:05:19.084Z,488
2018-01-21T08:06:28.187Z,484
2018-01-21T08:07:37.288Z,484
2018-01-21T08:08:46.115Z,488
2018-01-21T08:09:54.950Z,484
2018-01-21T08:11:03.878Z,480
2018-01-21T08:12:12.705Z,492
2018-01-21T08:13:21.808Z,496
2018-01-21T08:14:30.634Z,512
2018-01-21T08:15:39.459Z,520
2018-01-21T08:16:48.286Z,536
2018-01-21T08:17:57.113Z,580
2018-01-21T08:19:05.940Z,616
2018-01-21T08:20:14.768Z,640
2018-01-21T08:21:23.597Z,684
2018-01-21T08:22:32.425Z,720
2018-01-21T08:23:41.252Z,744
2018-01-21T08:24:50.354Z,756
2018-01-21T08:25:59.181Z,756
2018-01-21T08:27:08.332Z,780
2018-01-21T08:28:17.160Z,796
2018-01-21T08:29:25.987Z,860
2018-01-21T08:30:35.093Z,872
2018-01-21T08:31:43.918Z,828
2018-01-21T08:32:52.744Z,864
2018-01-21T08:34:01.822Z,868
2018-01-21T08:35:10.924Z,876
2018-01-21T08:36:19.750Z,848
2018-01-21T08:37:28.579Z,908
2018-01-21T08:38:37.404Z,948
2018-01-21T08:39:46.231Z,948
2018-01-21T08:40:55.057Z,980
2018-01-21T08:42:03.892Z,1016
2018-01-21T08:43:12.720Z,1004
2018-01-21T08:44:21.548Z,920
2018-01-21T08:45:30.377Z,844
2018-01-21T08:46:39.475Z,860
2018-01-21T08:47:48.305Z,856
2018-01-21T08:48:57.135Z,884
2018-01-21T08:50:05.965Z,928
2018-01-21T08:51:14.892Z,936
2018-01-21T08:52:23.723Z,888
2018-01-21T08:53:32.548Z,880
2018-01-21T08:54:41.375Z,940
2018-01-21T08:55:50.203Z,1036
2018-01-21T08:56:59.132Z,1124
2018-01-21T08:58:07.964Z,1160
2018-01-21T08:59:16.791Z,1188
2018-01-21T09:00:25.618Z,1252
2018-01-21T09:01:34.446Z,1344
2018-01-21T09:02:43.379Z,1368
2018-01-21T09:03:52.204Z,1404
2018-01-21T09:05:01.031Z,1432
2018-01-21T09:06:09.862Z,1428
2018-01-21T09:07:18.966Z,1372
2018-01-21T09:08:27.991Z,1356
2018-01-21T09:09:36.821Z,1384
2018-01-21T09:10:45.649Z,1400
2018-01-21T09:11:54.478Z,1412
2018-01-21T09:13:03.303Z,1408
2018-01-21T09:14:12.135Z,1468
2018-01-21T09:15:21.231Z,1536
2018-01-21T09:16:30.062Z,1540
2018-01-21T09:17:38.891Z,1492
2018-01-21T09:18:47.719Z,1468
2018-01-21T09:19:56.800Z,1504
2018-01-21T09:21:05.629Z,1540
2018-01-21T09:22:14.732Z,1560
2018-01-21T09:23:23.612Z,1604
2018-01-21T09:24:32.388Z,1656
2018-01-21T09:25:41.217Z,1660
2018-01-21T09:26:50.046Z,1620
2018-01-21T09:27:58.871Z,1608
2018-01-21T09:29:07.701Z,1608
2018-01-21T09:30:16.535Z,1632
2018-01-21T09:31:25.786Z,1640
2018-01-21T09:32:34.614Z,1648
2018-01-21T09:33:43.444Z,1724
2018-01-21T09:34:52.272Z,1748
2018-01-21T09:36:01.098Z,1696
2018-01-21T09:37:09.927Z,1704
2018-01-21T09:38:18.757Z,1648
2018-01-21T09:39:27.585Z,1632
2018-01-21T09:40:36.413Z,1692
2018-01-21T09:41:45.242Z,1812
2018-01-21T09:42:54.073Z,1900
2018-01-21T09:44:02.902Z,1960
2018-01-21T09:45:11.730Z,2040
2018-01-21T09:46:20.559Z,2112
2018-01-21T09:47:29.387Z,2192
2018-01-21T09:48:38.520Z,2272
2018-01-21T09:49:47.622Z,2300
2018-01-21T09:50:56.453Z,2296
2018-01-21T09:52:05.281Z,2300
2018-01-21T09:53:14.112Z,2320
2018-01-21T09:54:23.090Z,2300
2018-01-21T09:55:31.916Z,2328
2018-01-21T09:56:40.752Z,2488
2018-01-21T09:57:49.579Z,2596
2018-01-21T09:58:58.691Z,2588
2018-01-21T10:00:07.569Z,2592
2018-01-21T10:01:16.396Z,2660
2018-01-21T10:02:25.227Z,2740
2018-01-21T10:03:34.056Z,2712
2018-01-21T10:04:42.884Z,2600
2018-01-21T10:05:51.816Z,2492
2018-01-21T10:07:00.918Z,2508
2018-01-21T10:08:09.749Z,2480
2018-01-21T10:09:18.580Z,2448
2018-01-21T10:10:27.410Z,2420
2018-01-21T10:11:36.433Z,2412
2018-01-21T10:12:45.340Z,2448
2018-01-21T10:13:54.226Z,2432
2018-01-21T10:15:03.055Z,2356
2018-01-21T10:16:12.557Z,2364
2018-01-21T10:17:21.701Z,2444
2018-01-21T10:18:30.569Z,2412
2018-01-21T10:19:39.602Z,2376
2018-01-21T10:20:48.937Z,2320
2018-01-21T10:21:57.765Z,2296
2018-01-21T10:23:14.760Z,2264
2018-01-21T10:24:23.911Z,2284
2018-01-21T10:25:32.953Z,2308
2018-01-21T10:26:42.433Z,2172
2018-01-21T10:27:51.929Z,2056
2018-01-21T10:29:00.874Z,1964
2018-01-21T10:30:09.705Z,1856
2018-01-21T10:31:18.547Z,1972
2018-01-21T10:32:27.879Z,2176
2018-01-21T10:33:36.703Z,2424
2018-01-21T10:34:45.583Z,2444
2018-01-21T10:35:54.419Z,2328
2018-01-21T10:37:03.243Z,2164
2018-01-21T10:38:12.072Z,1992
2018-01-21T10:39:20.901Z,1856
2018-01-21T10:40:29.729Z,2140
2018-01-21T10:41:38.557Z,2360
2018-01-21T10:42:47.385Z,2492
2018-01-21T10:43:56.213Z,2644
2018-01-21T10:45:05.044Z,2744
2018-01-21T10:46:13.873Z,2800
2018-01-21T10:47:22.982Z,2736
2018-01-21T10:48:31.809Z,2660
2018-01-21T10:49:40.639Z,2676
2018-01-21T10:50:49.467Z,2572
2018-01-21T10:51:58.396Z,2560
2018-01-21T10:53:07.229Z,2576
2018-01-21T10:54:16.059Z,2664
2018-01-21T10:55:24.888Z,2640
2018-01-21T10:56:33.716Z,2560
2018-01-21T10:57:42.796Z,2512
2018-01-21T10:58:51.626Z,2504
2018-01-21T11:00:00.731Z,2528
2018-01-21T11:01:09.558Z,2564
2018-01-21T11:02:18.388Z,2548
2018-01-21T11:03:27.317Z,2436
2018-01-21T11:04:36.362Z,2200
2018-01-21T11:05:45.191Z,2072
2018-01-21T11:06:54.022Z,1992
2018-01-21T11:08:02.848Z,1980
2018-01-21T11:09:11.778Z,2072
2018-01-21T11:10:20.616Z,2248
2018-01-21T11:11:29.446Z,2456
2018-01-21T11:12:38.277Z,2380
2018-01-21T11:13:47.107Z,2212
2018-01-21T11:14:56.034Z,2112
2018-01-21T11:16:04.873Z,2040
2018-01-21T11:17:13.703Z,1952
2018-01-21T11:18:22.535Z,1984
2018-01-21T11:19:31.636Z,1968
2018-01-21T11:20:40.613Z,1908
2018-01-21T11:21:49.714Z,1860
2018-01-21T11:22:58.544Z,1856
2018-01-21T11:24:07.374Z,2008
2018-01-21T11:25:16.216Z,2036
2018-01-21T11:26:25.604Z,1976
2018-01-21T11:27:34.432Z,1872
2018-01-21T11:28:43.260Z,1776
2018-01-21T11:29:52.088Z,1660
2018-01-21T11:31:00.916Z,1464
2018-01-21T11:32:09.845Z,1312
2018-01-21T11:33:18.676Z,1296
2018-01-21T11:34:27.505Z,1272
2018-01-21T11:35:36.338Z,1268
2018-01-21T11:36:45.166Z,1360
2018-01-21T11:37:54.244Z,1600
2018-01-21T11:39:03.081Z,1852
2018-01-21T11:40:11.912Z,1908
2018-01-21T11:41:20.739Z,1796
2018-01-21T11:42:29.566Z,1688
2018-01-21T11:43:38.647Z,1640
2018-01-21T11:44:47.476Z,1588
2018-01-21T11:45:56.304Z,1632
2018-01-21T11:47:05.132Z,1680
2018-01-21T11:48:13.961Z,1732
2018-01-21T11:49:22.889Z,1736
2018-01-21T11:50:31.717Z,1788
2018-01-21T11:51:40.546Z,1916
2018-01-21T11:52:49.373Z,1976
2018-01-21T11:53:58.234Z,1924
2018-01-21T11:55:07.148Z,1948
2018-01-21T11:56:16.018Z,1816
2018-01-21T11:57:24.852Z,1760
2018-01-21T11:58:33.930Z,1896
2018-01-21T11:59:42.759Z,2080
2018-01-21T12:00:51.866Z,2152
2018-01-21T12:02:00.697Z,2008
2018-01-21T12:03:09.531Z,1948
2018-01-21T12:04:18.362Z,1980
2018-01-21T12:05:27.186Z,2088
2018-01-21T12:06:36.020Z,1968
2018-01-21T12:07:45.123Z,1828
2018-01-21T12:08:53.953Z,1784
2018-01-21T12:10:02.781Z,1676
2018-01-21T12:11:11.619Z,1608
2018-01-21T12:12:20.459Z,1652
2018-01-21T12:13:29.561Z,1680
2018-01-21T12:14:38.393Z,1660
2018-01-21T12:15:47.493Z,1704
2018-01-21T12:16:56.319Z,1764
2018-01-21T12:18:05.149Z,1796
2018-01-21T12:19:13.976Z,1792
2018-01-21T12:20:22.805Z,1828
2018-01-21T12:21:31.907Z,1876
2018-01-21T12:22:40.738Z,1936
2018-01-21T12:23:49.834Z,2048
2018-01-21T12:24:58.661Z,2060
2018-01-21T12:26:07.541Z,2044
2018-01-21T12:27:16.370Z,2000
2018-01-21T12:28:25.198Z,1972
2018-01-21T12:29:34.026Z,1952
2018-01-21T12:30:42.858Z,1848
2018-01-21T12:31:51.741Z,1776
2018-01-21T12:33:00.842Z,1676
2018-01-21T12:34:09.670Z,1656
2018-01-21T12:35:18.499Z,1712
2018-01-21T12:36:27.603Z,1696
2018-01-21T12:37:36.580Z,1728
2018-01-21T12:38:45.409Z,1816
2018-01-21T12:39:54.239Z,1856
2018-01-21T12:41:03.068Z,1764
2018-01-21T12:42:11.895Z,1664
2018-01-21T12:43:20.824Z,1488
2018-01-21T12:44:30.205Z,1476
2018-01-21T12:45:39.034Z,1492
2018-01-21T12:46:48.134Z,1556
2018-01-21T12:47:56.962Z,1452
2018-01-21T12:49:05.943Z,1420
2018-01-21T12:50:14.818Z,1588
2018-01-21T12:51:23.598Z,1820
2018-01-21T12:52:32.429Z,1948
2018-01-21T12:53:41.266Z,2084
2018-01-21T12:54:50.240Z,2128
2018-01-21T12:55:59.070Z,2228
2018-01-21T12:57:07.899Z,2220
2018-01-21T12:58:16.725Z,2252
2018-01-21T12:59:25.555Z,2192
2018-01-21T13:00:34.530Z,2036
2018-01-21T13:01:43.357Z,1916
2018-01-21T13:02:52.186Z,2256
2018-01-21T13:04:01.014Z,2576
2018-01-21T13:05:09.854Z,2124
2018-01-21T13:06:18.683Z,2228
2018-01-21T13:07:27.514Z,2140
2018-01-21T13:08:36.340Z,2008
2018-01-21T13:09:45.171Z,1872
2018-01-21T13:10:53.999Z,1592
2018-01-21T13:12:03.029Z,1468
2018-01-21T13:13:11.859Z,1696
2018-01-21T13:14:20.687Z,1736
2018-01-21T13:15:29.514Z,1828
2018-01-21T13:16:38.344Z,1772
2018-01-21T13:17:47.326Z,1764
2018-01-21T13:18:56.155Z,1780
2018-01-21T13:20:04.984Z,1736
2018-01-21T13:21:13.812Z,1768
2018-01-21T13:22:22.644Z,1788
2018-01-21T13:23:31.621Z,1408
2018-01-21T13:24:40.453Z,1728
2018-01-21T13:25:49.342Z,1672
2018-01-21T13:26:58.197Z,1516
2018-01-21T13:28:06.998Z,1444
2018-01-21T13:29:16.029Z,1496
2018-01-21T13:30:24.862Z,1440
2018-01-21T13:31:33.690Z,1424
2018-01-21T13:32:42.519Z,1232
2018-01-21T13:33:51.350Z,1164
2018-01-21T13:35:00.926Z,1184
2018-01-21T13:36:09.816Z,1152
2018-01-21T13:37:18.919Z,1272
2018-01-21T13:38:27.748Z,1220
2018-01-21T13:39:36.575Z,1108
2018-01-21T13:40:45.454Z,1176
2018-01-21T13:41:54.284Z,1212
2018-01-21T13:43:03.114Z,1180
2018-01-21T13:44:11.944Z,1152
2018-01-21T13:45:20.774Z,1192
2018-01-21T13:46:29.761Z,1216
2018-01-21T13:47:38.587Z,1152
2018-01-21T13:48:47.415Z,1056
2018-01-21T13:49:56.244Z,980
2018-01-21T13:51:05.076Z,956
2018-01-21T13:52:13.907Z,892
2018-01-21T13:53:22.736Z,844
2018-01-21T13:54:31.564Z,824
2018-01-21T13:55:40.392Z,808
2018-01-21T13:56:49.222Z,772
2018-01-21T13:57:58.050Z,768
2018-01-21T13:59:06.878Z,748
2018-01-21T14:00:15.709Z,732
2018-01-21T14:01:24.539Z,732
2018-01-21T14:02:33.367Z,716
2018-01-21T14:03:42.194Z,736
2018-01-21T14:04:51.024Z,736
2018-01-21T14:05:59.851Z,724
2018-01-21T14:07:08.679Z,692
2018-01-21T14:08:17.509Z,644
2018-01-21T14:09:26.336Z,580
2018-01-21T14:10:35.163Z,556
2018-01-21T14:11:44.091Z,532
2018-01-21T14:12:52.921Z,504
2018-01-21T14:14:01.748Z,496
2018-01-21T14:15:10.576Z,488
2018-01-21T14:16:19.404Z,488
2018-01-21T14:17:28.331Z,476
2018-01-21T14:18:37.160Z,468
2018-01-21T14:19:46.075Z,492
2018-01-21T14:20:54.914Z,516
2018-01-21T14:22:03.743Z,540
2018-01-21T14:23:12.830Z,540
2018-01-21T14:24:21.666Z,496
2018-01-21T14:25:30.495Z,500
2018-01-21T14:26:39.341Z,500
2018-01-21T14:27:48.171Z,480
2018-01-21T14:28:57.158Z,472
2018-01-21T14:30:05.988Z,440
2018-01-21T14:31:14.822Z,444
2018-01-21T14:32:23.921Z,456
2018-01-21T14:33:32.748Z,472
2018-01-21T14:34:41.829Z,500
2018-01-21T14:35:50.658Z,492
2018-01-21T14:36:59.486Z,464
2018-01-21T14:38:08.323Z,428
2018-01-21T14:39:17.153Z,416
2018-01-21T14:40:25.981Z,412
2018-01-21T14:41:34.812Z,372
2018-01-21T14:42:43.640Z,348
2018-01-21T14:43:52.469Z,340
2018-01-21T14:45:01.298Z,328
2018-01-21T14:46:10.129Z,312
2018-01-21T14:47:18.960Z,280
2018-01-21T14:48:27.785Z,260
2018-01-21T14:49:36.615Z,248
2018-01-21T14:50:45.442Z,244
2018-01-21T14:51:54.371Z,252
2018-01-21T14:53:03.200Z,248
2018-01-21T14:54:12.049Z,232
2018-01-21T14:55:20.859Z,216
2018-01-21T14:56:29.686Z,176
2018-01-21T14:57:38.916Z,160
2018-01-21T14:58:47.743Z,148
2018-01-21T14:59:56.572Z,148
2018-01-21T15:01:05.401Z,144
2018-01-21T15:02:14.227Z,144
2018-01-21T15:03:23.258Z,136
2018-01-21T15:04:32.109Z,132
2018-01-21T15:05:40.938Z,136
2018-01-21T15:06:49.766Z,136
2018-01-21T15:07:58.728Z,136
2018-01-21T15:09:07.601Z,132
2018-01-21T15:10:16.430Z,128
2018-01-21T15:11:25.257Z,124
2018-01-21T15:12:34.085Z,120
2018-01-21T15:13:42.917Z,116
2018-01-21T15:14:51.744Z,112
2018-01-21T15:16:00.572Z,116
2018-01-21T15:17:09.400Z,116
2018-01-21T15:18:18.230Z,112
2018-01-21T15:19:27.058Z,112
2018-01-21T15:20:35.884Z,104
2018-01-21T15:21:44.713Z,96
2018-01-21T15:22:53.547Z,96
2018-01-21T15:24:02.373Z,104
2018-01-21T15:25:11.202Z,80
2018-01-21T15:26:20.033Z,84
2018-01-21T15:27:28.862Z,84
2018-01-21T15:28:37.723Z,76
2018-01-21T15:29:46.831Z,72
2018-01-21T15:30:55.660Z,72
2018-01-21T15:32:04.664Z,64
2018-01-21T15:33:13.764Z,56
2018-01-21T15:34:22.591Z,52
2018-01-21T15:35:31.429Z,48
2018-01-21T15:36:40.261Z,44
2018-01-21T15:37:49.237Z,48
2018-01-21T15:38:58.072Z,44
2018-01-21T15:40:07.241Z,40
2018-01-21T15:41:16.151Z,40
2018-01-21T15:42:24.997Z,32
2018-01-21T15:43:34.146Z,32
2018-01-21T15:44:42.972Z,32
2018-01-21T15:45:51.809Z,28
2018-01-21T15:47:00.642Z,24
2018-01-21T15:48:09.753Z,24
2018-01-21T15:49:18.626Z,24
2018-01-21T15:50:27.455Z,20
2018-01-21T15:51:36.282Z,20
2018-01-21T15:52:45.386Z,16
2018-01-21T15:53:54.213Z,16
2018-01-21T15:55:03.041Z,12
2018-01-21T15:56:11.887Z,12
2018-01-21T15:57:20.714Z,12
2018-01-21T15:58:29.543Z,8
2018-01-21T15:59:38.374Z,8
2018-01-21T16:00:47.351Z,8
2018-01-21T16:01:56.181Z,4
2018-01-21T16:03:05.285Z,8
2018-01-21T16:04:14.111Z,4
2018-01-21T16:05:22.939Z,4
2018-01-21T16:06:31.865Z,0
2018-01-21T16:07:40.695Z,4
2018-01-21T16:08:49.523Z,4
2018-01-21T16:09:58.352Z,4
2018-01-21T16:11:07.179Z,4